Time;durP1;ratioP1;P1;durP2;ratioP2;P2;SDS_P1;SDS_P2;PMS_P1;PMS_P2;Temp;Humidity;BMP_temperature;BMP_pressure;BME280_temperature;BME280_humidity;BME280_pressure;Samples;Min_cycle;Max_cycle;Signal;HPM_P1;HPM_P2
2023/10/04 00:00:37;;;;;;;9.45;2.30;;;;;;;14.75;100.00;102397.97;5244830;28;20037;-70
2023/10/04 00:03:09;;;;;;;5.03;1.77;;;;;;;14.75;100.00;102400.63;5243538;28;20470;-70
2023/10/04 00:05:42;;;;;;;7.80;2.47;;;;;;;14.78;100.00;102412.72;5239289;28;20099;-70
2023/10/04 00:08:14;;;;;;;7.55;2.20;;;;;;;14.78;100.00;102394.28;5243663;28;20033;-70
2023/10/04 00:10:46;;;;;;;7.30;1.85;;;;;;;14.79;100.00;102407.31;5239722;28;20045;-70
2023/10/04 00:13:17;;;;;;;10.00;2.70;;;;;;;14.75;100.00;102403.25;5240623;28;20426;-70
2023/10/04 00:15:50;;;;;;;6.78;2.00;;;;;;;14.79;100.00;102417.03;5249839;28;20041;-70
2023/10/04 00:18:21;;;;;;;5.17;2.20;;;;;;;14.83;100.00;102411.41;5240793;28;20048;-70
2023/10/04 00:20:55;;;;;;;6.93;2.33;;;;;;;14.84;100.00;102415.72;5240786;28;20033;-70
2023/10/04 00:23:27;;;;;;;7.80;2.40;;;;;;;14.90;100.00;102421.50;5242617;28;20393;-70
2023/10/04 00:25:59;;;;;;;7.40;2.70;;;;;;;14.97;100.00;102412.13;5241958;28;20044;-70
2023/10/04 00:28:31;;;;;;;6.82;2.88;;;;;;;14.93;100.00;102411.53;5241634;28;20029;-70
2023/10/04 00:31:05;;;;;;;7.63;2.28;;;;;;;14.96;100.00;102407.78;5242705;28;20033;-70
2023/10/04 00:33:38;;;;;;;9.10;2.63;;;;;;;14.94;100.00;102404.47;5244400;28;20244;-70
2023/10/04 00:36:13;;;;;;;5.82;2.40;;;;;;;15.04;100.00;102410.69;5243375;28;20056;-70
2023/10/04 00:38:45;;;;;;;7.75;2.30;;;;;;;15.00;100.00;102403.97;5241638;28;20045;-71
2023/10/04 00:41:19;;;;;;;10.63;2.60;;;;;;;15.05;100.00;102410.56;5239344;28;20040;-70
2023/10/04 00:43:51;;;;;;;6.43;2.13;;;;;;;15.03;100.00;102416.91;5242422;28;20025;-70
2023/10/04 00:46:24;;;;;;;11.98;2.22;;;;;;;14.97;100.00;102420.06;5240103;28;20060;-70
2023/10/04 00:48:57;;;;;;;6.72;2.00;;;;;;;14.95;100.00;102414.03;5239887;28;20037;-70
2023/10/04 00:51:35;;;;;;;;;;;;;;;15.69;100.00;102419.63;5243588;28;20502;-70
2023/10/04 00:54:08;;;;;;;7.28;2.15;;;;;;;14.99;100.00;102426.03;5241669;28;19913;-70
2023/10/04 00:56:41;;;;;;;7.40;2.17;;;;;;;14.91;100.00;102421.34;5239939;28;20496;-70
2023/10/04 00:59:15;;;;;;;10.40;3.08;;;;;;;14.93;100.00;102437.09;5242398;28;20039;-70
2023/10/04 01:01:48;;;;;;;9.35;2.88;;;;;;;14.88;100.00;102434.78;5241860;28;20049;-70
2023/10/04 01:04:20;;;;;;;9.15;2.20;;;;;;;14.90;100.00;102437.31;5242435;28;20032;-70
2023/10/04 01:06:53;;;;;;;10.05;2.75;;;;;;;14.85;100.00;102435.06;5240676;28;20493;-70
2023/10/04 01:09:26;;;;;;;;;;;;;;;15.58;100.00;102442.41;5239686;28;20312;-70
2023/10/04 01:11:58;;;;;;;6.13;2.15;;;;;;;14.84;100.00;102434.19;5241106;28;19931;-70
2023/10/04 01:14:37;;;;;;;7.82;2.17;;;;;;;14.82;100.00;102432.66;5242162;28;20458;-70
2023/10/04 01:17:12;;;;;;;8.48;2.65;;;;;;;14.78;100.00;102433.84;5240145;28;20037;-70
2023/10/04 01:19:44;;;;;;;9.77;2.53;;;;;;;14.71;100.00;102427.34;5247157;28;20036;-70
2023/10/04 01:22:16;;;;;;;7.78;2.35;;;;;;;14.72;100.00;102435.13;5242478;28;20041;-70
2023/10/04 01:24:48;;;;;;;7.00;2.38;;;;;;;14.73;100.00;102438.63;5241565;28;20462;-70
2023/10/04 01:27:20;;;;;;;10.52;2.30;;;;;;;14.70;100.00;102442.34;5241015;28;20025;-70
2023/10/04 01:29:52;;;;;;;7.70;2.50;;;;;;;14.69;100.00;102437.16;5240279;28;20043;-70
2023/10/04 01:32:24;;;;;;;9.15;2.28;;;;;;;14.71;100.00;102443.19;5239247;28;20037;-70
2023/10/04 01:34:56;;;;;;;11.07;2.47;;;;;;;14.70;100.00;102442.34;5242420;28;20059;-70
2023/10/04 01:37:31;;;;;;;7.43;2.92;;;;;;;14.71;100.00;102441.38;5238415;28;20051;-70
2023/10/04 01:40:07;;;;;;;8.65;2.25;;;;;;;14.65;100.00;102439.19;5241600;28;20040;-70
2023/10/04 01:42:40;;;;;;;6.97;2.30;;;;;;;14.66;100.00;102440.91;5239730;28;20044;-70
2023/10/04 01:45:15;;;;;;;7.65;2.50;;;;;;;14.69;100.00;102442.44;5240696;28;20064;-70
2023/10/04 01:47:50;;;;;;;8.60;2.40;;;;;;;14.65;100.00;102448.91;5241520;28;20033;-70
2023/10/04 01:50:23;;;;;;;8.18;2.53;;;;;;;14.65;100.00;102444.47;5239674;28;20044;-70
2023/10/04 01:52:55;;;;;;;8.45;2.35;;;;;;;14.68;100.00;102452.16;5241203;28;20045;-70
2023/10/04 01:55:27;;;;;;;8.35;2.75;;;;;;;14.69;100.00;102445.09;5239749;28;20048;-70
2023/10/04 01:57:59;;;;;;;9.43;2.35;;;;;;;14.69;100.00;102445.91;5240535;28;20553;-70
2023/10/04 02:00:31;;;;;;;7.10;2.10;;;;;;;14.67;100.00;102439.94;5241164;28;20420;-70
2023/10/04 02:03:03;;;;;;;9.45;2.58;;;;;;;14.65;100.00;102439.19;5240301;28;20025;-70
2023/10/04 02:05:40;;;;;;;7.50;2.50;;;;;;;14.68;100.00;102438.13;5241686;28;20431;-70
2023/10/04 02:08:12;;;;;;;9.13;2.97;;;;;;;14.64;100.00;102437.53;5239967;28;20025;-70
2023/10/04 02:10:44;;;;;;;8.77;2.90;;;;;;;14.62;100.00;102434.16;5242214;28;20029;-70
2023/10/04 02:13:17;;;;;;;8.13;2.57;;;;;;;14.64;100.00;102434.06;5246457;28;20048;-70
2023/10/04 02:15:51;;;;;;;8.75;2.30;;;;;;;14.66;100.00;102435.63;5244266;28;20037;-70
2023/10/04 02:18:23;;;;;;;6.32;2.38;;;;;;;14.68;100.00;102446.06;5246562;28;20051;-70
2023/10/04 02:20:55;;;;;;;6.33;2.67;;;;;;;14.70;100.00;102445.00;5242834;28;20036;-70
2023/10/04 02:23:28;;;;;;;9.60;2.47;;;;;;;14.70;100.00;102445.00;5244004;28;20037;-70
2023/10/04 02:26:00;;;;;;;7.28;2.10;;;;;;;14.67;100.00;102445.22;5244989;28;20080;-70
2023/10/04 02:28:33;;;;;;;7.22;2.28;;;;;;;14.64;100.00;102426.16;5244495;28;20037;-70
2023/10/04 02:31:05;;;;;;;10.20;2.63;;;;;;;14.72;100.00;102434.31;5243683;28;20033;-70
2023/10/04 02:33:38;;;;;;;8.15;2.67;;;;;;;14.71;100.00;102438.75;5242169;28;20021;-70
2023/10/04 02:36:11;;;;;;;6.07;2.38;;;;;;;14.71;100.00;102430.81;5243971;28;20497;-70
2023/10/04 02:38:44;;;;;;;7.45;2.20;;;;;;;14.70;100.00;102425.66;5243793;28;20387;-71
2023/10/04 02:41:15;;;;;;;8.48;2.53;;;;;;;14.74;100.00;102433.25;5245276;28;20067;-70
2023/10/04 02:43:47;;;;;;;8.07;2.33;;;;;;;14.71;100.00;102445.81;5244385;28;20080;-70
2023/10/04 02:46:20;;;;;;;7.82;2.25;;;;;;;14.69;100.00;102442.44;5244029;28;20029;-70
2023/10/04 02:48:52;;;;;;;6.20;2.22;;;;;;;14.69;100.00;102445.91;5245915;28;20032;-70
2023/10/04 02:51:24;;;;;;;7.25;2.10;;;;;;;14.66;100.00;102446.19;5243923;28;20414;-70
2023/10/04 02:53:56;;;;;;;8.48;2.55;;;;;;;14.63;100.00;102451.69;5243790;28;20383;-70
2023/10/04 02:56:28;;;;;;;8.07;2.45;;;;;;;14.64;100.00;102447.25;5244540;28;20112;-70
2023/10/04 02:59:00;;;;;;;7.88;2.58;;;;;;;14.60;100.00;102452.75;5246673;28;20052;-70
2023/10/04 03:01:32;;;;;;;7.40;2.33;;;;;;;14.51;100.00;102445.56;5241157;28;20482;-70
2023/10/04 03:04:04;;;;;;;8.70;2.65;;;;;;;14.58;100.00;102469.63;5243470;28;20517;-70
2023/10/04 03:06:35;;;;;;;8.82;2.50;;;;;;;14.55;100.00;102464.63;5242702;28;20399;-70
2023/10/04 03:09:08;;;;;;;7.20;2.30;;;;;;;14.54;100.00;102458.47;5243211;28;20032;-70
2023/10/04 03:11:42;;;;;;;9.00;3.05;;;;;;;14.57;100.00;102462.69;5244482;28;20502;-70
2023/10/04 03:14:15;;;;;;;10.98;2.67;;;;;;;14.55;100.00;102468.09;5244972;28;20025;-70
2023/10/04 03:16:47;;;;;;;10.25;2.70;;;;;;;14.50;100.00;102472.03;5243301;28;20513;-70
2023/10/04 03:19:19;;;;;;;6.40;2.40;;;;;;;14.48;100.00;102473.91;5242213;28;20025;-70
2023/10/04 03:21:51;;;;;;;8.15;2.40;;;;;;;14.48;100.00;102476.56;5244128;28;20029;-70
2023/10/04 03:24:23;;;;;;;8.52;2.85;;;;;;;14.40;100.00;102482.41;5243205;28;20029;-70
2023/10/04 03:26:55;;;;;;;7.88;2.80;;;;;;;14.36;100.00;102475.69;5242479;28;20307;-70
2023/10/04 03:29:28;;;;;;;10.75;2.85;;;;;;;14.30;100.00;102470.84;5242933;28;20041;-70
2023/10/04 03:32:07;;;;;;;6.43;2.38;;;;;;;14.30;100.00;102482.25;5245075;28;20045;-70
2023/10/04 03:34:40;;;;;;;11.20;2.58;;;;;;;14.28;100.00;102475.38;5244738;28;20334;-70
2023/10/04 03:37:14;;;;;;;9.18;2.80;;;;;;;14.28;100.00;102478.03;5241600;28;20040;-70
2023/10/04 03:39:46;;;;;;;10.07;2.30;;;;;;;14.22;100.00;102475.88;5243657;28;20036;-70
2023/10/04 03:42:18;;;;;;;7.32;2.45;;;;;;;14.16;100.00;102473.66;5243844;28;20475;-70
2023/10/04 03:44:50;;;;;;;6.82;2.25;;;;;;;14.11;100.00;102460.84;5243796;28;20032;-70
2023/10/04 03:47:22;;;;;;;7.90;2.90;;;;;;;14.11;100.00;102480.13;5244066;28;20045;-70
2023/10/04 03:49:54;;;;;;;6.55;2.88;;;;;;;14.10;100.00;102478.44;5243748;28;20048;-70
2023/10/04 03:52:26;;;;;;;9.85;3.10;;;;;;;14.04;100.00;102475.41;5243121;28;20484;-70
2023/10/04 03:54:59;;;;;;;8.35;2.70;;;;;;;14.05;100.00;102470.06;5241098;28;20774;-70
2023/10/04 03:57:31;;;;;;;9.48;3.08;;;;;;;14.02;100.00;102458.91;5242125;28;20494;-70
2023/10/04 04:00:11;;;;;;;9.13;2.28;;;;;;;14.00;100.00;102460.78;5240556;28;20037;-70
2023/10/04 04:02:44;;;;;;;9.43;4.05;;;;;;;14.00;100.00;102458.16;5240713;28;20052;-70
2023/10/04 04:05:20;;;;;;;6.32;3.10;;;;;;;13.95;100.00;102462.94;5242251;28;20029;-70
2023/10/04 04:07:52;;;;;;;7.80;2.65;;;;;;;13.95;100.00;102455.03;5241412;28;20040;-70
2023/10/04 04:10:24;;;;;;;7.00;2.67;;;;;;;13.90;100.00;102465.03;5243396;28;20056;-70
2023/10/04 04:12:59;;;;;;;10.27;2.72;;;;;;;13.89;100.00;102474.75;5243892;28;20367;-70
2023/10/04 04:15:34;;;;;;;8.30;3.03;;;;;;;13.84;100.00;102468.97;5242949;28;20489;-70
2023/10/04 04:18:10;;;;;;;8.55;2.55;;;;;;;13.82;100.00;102455.91;5243316;28;20048;-70
2023/10/04 04:20:41;;;;;;;9.82;2.97;;;;;;;13.80;100.00;102451.72;5243132;28;20624;-70
2023/10/04 04:23:15;;;;;;;10.52;3.22;;;;;;;13.82;100.00;102452.44;5243834;28;20039;-70
2023/10/04 04:25:48;;;;;;;15.05;3.70;;;;;;;13.80;100.00;102449.09;5243739;28;20053;-70
2023/10/04 04:28:20;;;;;;;8.82;2.78;;;;;;;13.77;100.00;102449.31;5242127;28;20211;-70
2023/10/04 04:30:53;;;;;;;8.07;3.25;;;;;;;13.76;100.00;102450.25;5243681;28;20028;-70
2023/10/04 04:33:28;;;;;;;;;;;;;;;14.48;100.00;102445.75;5241846;28;20041;-70
2023/10/04 04:36:09;;;;;;;10.60;2.75;;;;;;;13.75;100.00;102451.19;5243567;28;20310;-70
2023/10/04 04:38:41;;;;;;;7.82;2.95;;;;;;;13.65;100.00;102440.50;5241009;28;20037;-71
2023/10/04 04:41:13;;;;;;;7.45;2.63;;;;;;;13.65;100.00;102456.31;5244022;28;20047;-70
2023/10/04 04:43:44;;;;;;;12.43;2.83;;;;;;;13.66;100.00;102460.59;5243611;28;20037;-70
2023/10/04 04:46:18;;;;;;;9.65;3.03;;;;;;;13.57;100.00;102446.31;5243190;28;20026;-70
2023/10/04 04:48:54;;;;;;;8.35;2.97;;;;;;;13.61;100.00;102453.06;5243440;28;20029;-70
2023/10/04 04:51:27;;;;;;;12.00;2.83;;;;;;;13.60;100.00;102440.00;5240712;28;20083;-70
2023/10/04 04:53:59;;;;;;;10.90;2.88;;;;;;;13.65;100.00;102450.19;5240387;28;20620;-70
2023/10/04 04:56:31;;;;;;;11.98;3.60;;;;;;;13.59;100.00;102456.72;5243103;28;20033;-70
2023/10/04 04:59:07;;;;;;;8.15;2.75;;;;;;;13.58;100.00;102457.69;5242335;28;20692;-70
2023/10/04 05:01:39;;;;;;;9.35;3.00;;;;;;;13.54;100.00;102456.22;5242563;28;20053;-70
2023/10/04 05:04:11;;;;;;;10.40;3.25;;;;;;;13.52;100.00;102442.31;5243420;28;20041;-70
2023/10/04 05:06:43;;;;;;;8.63;2.83;;;;;;;13.49;100.00;102455.72;5244100;28;20033;-70
2023/10/04 05:09:17;;;;;;;9.75;3.10;;;;;;;13.49;100.00;102466.25;5243013;28;20033;-70
2023/10/04 05:11:49;;;;;;;11.65;3.22;;;;;;;13.46;100.00;102464.69;5243833;28;20029;-70
2023/10/04 05:14:22;;;;;;;12.02;3.22;;;;;;;13.47;100.00;102486.59;5241741;28;20386;-70
2023/10/04 05:16:54;;;;;;;7.05;3.20;;;;;;;13.46;100.00;102484.91;5242267;28;20397;-70
2023/10/04 05:19:25;;;;;;;12.27;2.95;;;;;;;13.47;100.00;102495.31;5242774;28;20040;-70
2023/10/04 05:21:57;;;;;;;10.05;2.95;;;;;;;13.44;100.00;102498.16;5242737;28;20033;-71
2023/10/04 05:24:30;;;;;;;11.38;3.05;;;;;;;13.39;100.00;102495.84;5243539;28;20033;-71
2023/10/04 05:27:02;;;;;;;7.57;2.78;;;;;;;13.41;100.00;102508.06;5243505;28;20055;-70
2023/10/04 05:29:34;;;;;;;10.88;2.83;;;;;;;13.36;100.00;102511.88;5242505;28;20490;-70
2023/10/04 05:32:06;;;;;;;8.43;2.33;;;;;;;13.35;100.00;102498.81;5242465;28;20024;-70
2023/10/04 05:34:38;;;;;;;11.25;3.58;;;;;;;13.33;100.00;102500.69;5241723;28;20033;-71
2023/10/04 05:37:10;;;;;;;12.35;3.47;;;;;;;13.31;100.00;102502.63;5243201;28;20069;-70
2023/10/04 05:39:43;;;;;;;8.25;2.55;;;;;;;13.28;100.00;102498.41;5249149;23;20054;-70
2023/10/04 05:42:15;;;;;;;10.68;2.95;;;;;;;13.29;100.00;102509.75;5219849;28;20025;-70
2023/10/04 05:44:47;;;;;;;14.60;3.47;;;;;;;13.27;100.00;102509.88;5221234;28;20614;-70
2023/10/04 05:47:19;;;;;;;8.65;3.05;;;;;;;13.24;100.00;102517.16;5226383;28;20381;-70
2023/10/04 05:49:51;;;;;;;12.88;3.58;;;;;;;13.23;100.00;102515.44;5225835;28;20465;-70
2023/10/04 05:52:23;;;;;;;10.02;2.88;;;;;;;13.22;100.00;102519.88;5226290;28;20312;-70
2023/10/04 05:54:55;;;;;;;11.05;3.28;;;;;;;13.26;100.00;102518.75;5226832;28;20128;-70
2023/10/04 05:57:28;;;;;;;14.27;3.78;;;;;;;13.27;100.00;102523.06;5226651;28;20049;-70
2023/10/04 06:00:00;;;;;;;9.25;3.13;;;;;;;13.29;100.00;102525.56;5224726;28;20371;-70
2023/10/04 06:02:32;;;;;;;9.43;2.58;;;;;;;13.25;100.00;102522.28;5226513;28;20040;-71
2023/10/04 06:05:07;;;;;;;6.57;2.67;;;;;;;13.29;100.00;102530.81;5224321;28;20036;-70
2023/10/04 06:07:39;;;;;;;11.23;3.00;;;;;;;13.28;100.00;102531.78;5225632;28;20065;-70
2023/10/04 06:10:11;;;;;;;10.80;2.92;;;;;;;13.26;100.00;102528.41;5226653;28;20397;-70
2023/10/04 06:12:46;;;;;;;10.70;2.85;;;;;;;13.24;100.00;102527.69;5225666;28;20030;-70
2023/10/04 06:15:19;;;;;;;8.25;2.95;;;;;;;13.19;100.00;102530.59;5227492;28;20506;-70
2023/10/04 06:17:52;;;;;;;10.35;3.17;;;;;;;13.23;100.00;102529.47;5226406;28;20570;-70
2023/10/04 06:23:00;;;;;;;9.50;2.80;;;;;;;13.24;100.00;102532.94;5225660;28;20041;-70
2023/10/04 06:25:44;;;;;;;12.80;3.30;;;;;;;13.38;100.00;102543.38;5225255;28;20017;-70
2023/10/04 06:28:16;;;;;;;10.07;3.40;;;;;;;13.22;100.00;102540.94;5226643;28;20052;-70
2023/10/04 06:30:52;;;;;;;6.72;2.78;;;;;;;13.23;100.00;102541.75;5224746;28;20029;-70
2023/10/04 06:33:24;;;;;;;8.93;2.90;;;;;;;13.26;100.00;102545.06;5226277;28;20042;-71
2023/10/04 06:35:56;;;;;;;11.02;2.92;;;;;;;13.29;100.00;102557.16;5224275;28;20033;-70
2023/10/04 06:38:28;;;;;;;10.27;3.22;;;;;;;13.25;100.00;102551.25;5226435;28;20516;-70
2023/10/04 06:41:03;;;;;;;9.95;2.65;;;;;;;13.28;100.00;102545.78;5226706;28;20036;-70
2023/10/04 06:43:35;;;;;;;11.05;3.63;;;;;;;13.27;100.00;102549.38;5223370;28;20036;-70
2023/10/04 06:46:06;;;;;;;11.02;3.33;;;;;;;13.31;100.00;102555.25;5225871;28;20399;-70
2023/10/04 06:48:38;;;;;;;9.38;2.70;;;;;;;13.32;100.00;102555.16;5223985;28;20036;-70
2023/10/04 06:51:11;;;;;;;11.13;2.80;;;;;;;13.35;100.00;102562.00;5223285;28;20040;-71
2023/10/04 06:53:43;;;;;;;13.10;2.90;;;;;;;13.43;100.00;102567.56;5224462;28;20370;-71
2023/10/04 06:56:15;;;;;;;9.90;3.30;;;;;;;13.48;100.00;102570.72;5224181;28;20038;-70
2023/10/04 06:58:48;;;;;;;14.38;4.40;;;;;;;13.48;100.00;102568.09;5226956;28;20050;-70
2023/10/04 07:01:20;;;;;;;11.57;3.65;;;;;;;13.55;100.00;102568.50;5224582;28;20034;-71
2023/10/04 07:03:52;;;;;;;11.37;3.70;;;;;;;13.60;100.00;102566.41;5224558;28;20475;-70
2023/10/04 07:06:24;;;;;;;9.63;4.18;;;;;;;13.62;100.00;102567.13;5224323;28;20045;-71
2023/10/04 07:08:56;;;;;;;9.32;3.28;;;;;;;13.65;100.00;102571.34;5225334;28;20041;-70
2023/10/04 07:11:28;;;;;;;7.72;2.80;;;;;;;13.68;100.00;102565.88;5226218;28;20072;-71
2023/10/04 07:14:00;;;;;;;12.43;3.72;;;;;;;13.77;100.00;102567.84;5226676;28;20292;-70
2023/10/04 07:16:31;;;;;;;11.23;3.30;;;;;;;13.83;100.00;102567.41;5226397;28;20044;-71
2023/10/04 07:19:04;;;;;;;10.40;3.25;;;;;;;13.88;100.00;102567.91;5224063;28;20466;-70
2023/10/04 07:21:36;;;;;;;7.28;3.17;;;;;;;13.98;100.00;102568.97;5226887;28;20049;-71
2023/10/04 07:24:07;;;;;;;8.50;3.55;;;;;;;14.02;100.00;102565.16;5225523;28;20030;-71
2023/10/04 07:26:39;;;;;;;9.13;3.22;;;;;;;14.07;100.00;102570.09;5224637;28;20033;-70
2023/10/04 07:29:11;;;;;;;12.60;3.35;;;;;;;14.12;100.00;102563.50;5223244;28;20040;-71
2023/10/04 07:31:44;;;;;;;11.25;3.58;;;;;;;14.21;100.00;102561.19;5226604;28;20040;-71
2023/10/04 07:34:17;;;;;;;;;;;;;;;14.91;100.00;102565.66;5226987;28;20397;-71
2023/10/04 07:36:49;;;;;;;9.00;3.38;;;;;;;14.36;100.00;102566.16;5224333;28;20300;-70
2023/10/04 07:39:21;;;;;;;10.60;3.97;;;;;;;14.37;100.00;102567.00;5224791;28;20046;-70
2023/10/04 07:41:54;;;;;;;11.38;3.67;;;;;;;14.48;100.00;102572.34;5225870;28;20030;-71
2023/10/04 07:44:30;;;;;;;10.10;3.55;;;;;;;14.55;100.00;102580.69;5224542;28;20033;-71
2023/10/04 07:47:02;;;;;;;11.30;3.65;;;;;;;14.52;100.00;102573.81;5225197;28;20465;-71
2023/10/04 07:49:34;;;;;;;7.30;3.23;;;;;;;14.65;100.00;102586.09;5224797;28;20392;-71
2023/10/04 07:52:07;;;;;;;12.00;3.88;;;;;;;14.68;100.00;102586.72;5225035;28;20299;-70
2023/10/04 07:54:39;;;;;;;13.52;4.00;;;;;;;14.77;100.00;102591.31;5224060;28;20022;-70
2023/10/04 07:57:11;;;;;;;11.82;4.05;;;;;;;14.77;100.00;102587.81;5224487;28;20393;-70
2023/10/04 07:59:43;;;;;;;9.63;3.63;;;;;;;14.87;100.00;102588.81;5224014;28;20091;-71
2023/10/04 08:02:15;;;;;;;9.80;3.70;;;;;;;14.95;100.00;102589.06;5223712;28;20033;-71
2023/10/04 08:04:48;;;;;;;12.15;4.25;;;;;;;14.98;100.00;102599.41;5223129;28;20017;-71
2023/10/04 08:07:20;;;;;;;9.45;3.25;;;;;;;15.03;100.00;102596.41;5221420;28;20573;-71
2023/10/04 08:09:52;;;;;;;7.88;3.30;;;;;;;15.18;100.00;102605.78;5224916;28;20036;-71
2023/10/04 08:12:26;;;;;;;9.73;3.72;;;;;;;15.19;100.00;102601.34;5225314;28;20039;-71
2023/10/04 08:15:00;;;;;;;11.40;3.88;;;;;;;15.21;100.00;102602.94;5222642;28;20038;-70
2023/10/04 08:17:33;;;;;;;8.73;3.70;;;;;;;15.27;100.00;102602.47;5221904;28;20379;-70
2023/10/04 08:20:05;;;;;;;9.57;3.47;;;;;;;15.35;100.00;102611.59;5218936;28;20410;-70
2023/10/04 08:22:38;;;;;;;13.98;4.10;;;;;;;15.39;100.00;102618.31;5223449;28;20037;-71
2023/10/04 08:25:23;;;;;;;10.13;3.78;;;;;;;15.47;100.00;102618.56;5224394;28;20030;-70
2023/10/04 08:27:56;;;;;;;11.85;3.60;;;;;;;15.52;100.00;102625.16;5221600;28;20036;-70
2023/10/04 08:30:28;;;;;;;;;;;;;;;16.23;100.00;102624.94;5230452;28;20056;-71
2023/10/04 08:33:00;;;;;;;11.23;3.63;;;;;;;15.68;100.00;102619.59;5220932;28;20382;-70
2023/10/04 08:35:39;;;;;;;11.90;4.03;;;;;;;15.66;100.00;102610.09;5222477;28;20360;-70
2023/10/04 08:38:10;;;;;;;14.43;4.47;;;;;;;15.67;100.00;102615.25;5223507;28;20033;-71
2023/10/04 08:40:42;;;;;;;8.80;3.55;;;;;;;15.73;100.00;102614.78;5225138;28;20525;-71
2023/10/04 08:43:14;;;;;;;7.18;3.38;;;;;;;15.79;100.00;102619.56;5217899;28;20139;-71
2023/10/04 08:45:47;;;;;;;8.90;3.60;;;;;;;15.87;100.00;102620.75;5221220;28;20033;-71
2023/10/04 08:48:18;;;;;;;12.77;4.03;;;;;;;16.02;100.00;102619.53;5223911;28;20386;-71
2023/10/04 08:50:59;;;;;;;9.88;3.80;;;;;;;16.22;100.00;102623.25;5219087;28;20050;-71
2023/10/04 08:53:55;;;;;;;10.15;4.10;;;;;;;16.46;100.00;102629.19;5221873;28;20041;-71
2023/10/04 08:56:34;;;;;;;12.00;4.07;;;;;;;16.43;100.00;102620.66;5221888;28;20046;-71
2023/10/04 08:59:06;;;;;;;8.65;3.17;;;;;;;16.48;100.00;102623.78;5219847;28;20045;-71
2023/10/04 09:01:39;;;;;;;10.05;3.35;;;;;;;16.61;100.00;102628.91;5221441;28;20494;-71
2023/10/04 09:04:13;;;;;;;9.13;3.17;;;;;;;16.72;100.00;102627.06;5222461;28;20036;-71
2023/10/04 09:06:46;;;;;;;6.65;3.10;;;;;;;16.80;100.00;102630.91;5220781;28;20041;-71
2023/10/04 09:09:19;;;;;;;11.30;4.05;;;;;;;16.89;100.00;102624.84;5221555;28;20399;-71
2023/10/04 09:11:50;;;;;;;10.98;3.65;;;;;;;16.93;100.00;102632.41;5222004;28;20025;-71
2023/10/04 09:14:22;;;;;;;14.90;4.10;;;;;;;17.01;100.00;102626.47;5220460;28;20037;-71
2023/10/04 09:17:07;;;;;;;8.32;3.45;;;;;;;17.27;100.00;102627.75;5221129;28;20048;-71
2023/10/04 09:19:41;;;;;;;10.63;3.33;;;;;;;17.12;100.00;102622.91;5219884;28;20049;-71
2023/10/04 09:22:17;;;;;;;14.55;4.43;;;;;;;17.19;100.00;102624.91;5219795;28;20416;-72
2023/10/04 09:24:54;;;;;;;11.60;3.95;;;;;;;17.33;100.00;102614.94;5220049;28;20576;-71
2023/10/04 09:27:26;;;;;;;7.60;3.45;;;;;;;17.34;100.00;102613.97;5222353;28;20040;-72
2023/10/04 09:29:59;;;;;;;10.07;4.18;;;;;;;17.40;100.00;102606.34;5221052;28;20033;-71
2023/10/04 09:32:35;;;;;;;12.55;3.85;;;;;;;17.50;100.00;102617.84;5222029;28;20033;-72
2023/10/04 09:35:08;;;;;;;10.32;3.42;;;;;;;17.44;100.00;102614.88;5221422;28;20036;-71
2023/10/04 09:37:44;;;;;;;9.20;3.88;;;;;;;17.54;100.00;102615.78;5222971;28;20025;-71
2023/10/04 09:40:17;;;;;;;9.80;3.55;;;;;;;17.58;100.00;102621.63;5225257;28;20041;-71
2023/10/04 09:42:55;;;;;;;11.10;3.63;;;;;;;17.65;100.00;102630.72;5221384;28;20038;-71
2023/10/04 09:45:27;;;;;;;9.40;3.25;;;;;;;17.62;100.00;102628.34;5222690;28;20478;-71
2023/10/04 09:48:03;;;;;;;8.93;3.25;;;;;;;17.63;100.00;102628.22;5222833;28;20119;-71
2023/10/04 09:50:35;;;;;;;9.40;3.53;;;;;;;17.61;100.00;102629.31;5222437;28;20030;-71
2023/10/04 09:53:07;;;;;;;10.93;3.30;;;;;;;17.73;100.00;102621.16;5222268;28;20169;-72
2023/10/04 09:55:41;;;;;;;8.98;3.55;;;;;;;17.74;100.00;102624.63;5223465;28;20041;-72
2023/10/04 09:58:13;;;;;;;8.90;3.15;;;;;;;17.81;100.00;102611.72;5223201;28;20041;-71
2023/10/04 10:00:45;;;;;;;8.88;3.78;;;;;;;17.87;100.00;102624.41;5224819;28;20037;-71
2023/10/04 10:03:23;;;;;;;9.18;3.95;;;;;;;17.95;100.00;102621.94;5228954;28;20037;-72
2023/10/04 10:05:58;;;;;;;11.05;4.10;;;;;;;17.94;100.00;102631.69;5220419;28;20034;-71
2023/10/04 10:08:34;;;;;;;9.45;3.03;;;;;;;17.99;100.00;102628.63;5221844;28;20037;-72
2023/10/04 10:11:10;;;;;;;10.68;3.33;;;;;;;17.96;100.00;102628.94;5221182;28;20040;-72
2023/10/04 10:13:44;;;;;;;10.23;3.22;;;;;;;18.12;100.00;102636.38;5221878;28;20045;-72
2023/10/04 10:16:19;;;;;;;6.97;3.25;;;;;;;18.05;100.00;102633.41;5220115;28;20037;-72
2023/10/04 10:18:52;;;;;;;8.90;3.97;;;;;;;18.04;100.00;102631.75;5221435;28;20402;-72
2023/10/04 10:22:02;;;;;;;11.93;4.05;;;;;;;18.36;100.00;102626.22;5218667;28;20048;-72
2023/10/04 10:24:44;;;;;;;7.05;3.30;;;;;;;18.26;100.00;102630.69;5227480;28;20402;-71
2023/10/04 10:27:19;;;;;;;8.40;3.27;;;;;;;18.24;100.00;102633.47;5219716;28;20030;-71
2023/10/04 10:29:52;;;;;;;9.02;3.15;;;;;;;18.26;100.00;102630.69;5218881;28;20304;-71
2023/10/04 10:32:24;;;;;;;10.30;3.20;;;;;;;18.28;100.00;102639.31;5220828;28;20037;-72
2023/10/04 10:35:00;;;;;;;9.37;3.90;;;;;;;18.46;100.00;102629.72;5223907;28;20037;-71
2023/10/04 10:37:38;;;;;;;10.75;3.70;;;;;;;18.50;100.00;102624.13;5230079;28;20056;-71
2023/10/04 10:40:31;;;;;;;11.30;4.07;;;;;;;18.91;100.00;102633.69;5223614;28;20038;-72
2023/10/04 10:43:08;;;;;;;8.02;3.53;;;;;;;18.82;100.00;102619.41;5225515;28;20041;-72
2023/10/04 10:45:39;;;;;;;10.70;3.97;;;;;;;18.71;100.00;102616.91;5221793;28;20041;-72
2023/10/04 10:48:12;;;;;;;8.15;3.20;;;;;;;18.82;100.00;102619.41;5225186;28;20026;-71
2023/10/04 10:50:44;;;;;;;9.10;3.67;;;;;;;18.80;100.00;102617.88;5225251;28;20105;-72
2023/10/04 10:53:16;;;;;;;7.72;3.42;;;;;;;18.78;100.00;102620.66;5222630;28;20077;-72
2023/10/04 10:55:48;;;;;;;8.45;3.35;;;;;;;18.93;100.00;102613.09;5229013;28;20046;-72
2023/10/04 10:58:20;;;;;;;9.80;3.38;;;;;;;18.97;100.00;102617.16;5222225;28;20033;-72
2023/10/04 11:00:53;;;;;;;8.52;3.40;;;;;;;19.07;100.00;102611.84;5225836;28;20033;-72
2023/10/04 11:03:25;;;;;;;8.95;3.47;;;;;;;19.03;100.00;102608.63;5220207;28;20029;-71
2023/10/04 11:06:01;;;;;;;8.55;3.85;;;;;;;19.16;100.00;102603.84;5218161;28;20402;-72
2023/10/04 11:08:32;;;;;;;11.00;3.80;;;;;;;19.14;99.09;102605.81;5219574;28;20033;-72
2023/10/04 11:11:04;;;;;;;9.82;3.47;;;;;;;19.18;96.67;102591.25;5221972;28;20087;-72
2023/10/04 11:13:38;;;;;;;10.30;4.50;;;;;;;19.21;99.66;102587.47;5221310;28;20071;-72
2023/10/04 11:16:10;;;;;;;11.52;4.07;;;;;;;19.19;95.07;102587.59;5222752;28;20840;-72
2023/10/04 11:18:45;;;;;;;10.23;3.78;;;;;;;19.33;94.92;102585.47;5221130;28;20030;-72
2023/10/04 11:21:17;;;;;;;9.77;4.43;;;;;;;19.25;93.63;102585.38;5224863;28;20815;-72
2023/10/04 11:23:50;;;;;;;9.77;3.85;;;;;;;19.31;91.62;102585.59;5222076;28;20247;-72
2023/10/04 11:26:22;;;;;;;7.97;4.35;;;;;;;19.39;91.48;102588.38;5224520;28;20493;-72
2023/10/04 11:28:54;;;;;;;10.67;4.47;;;;;;;19.36;90.76;102582.53;5222348;28;20046;-72
2023/10/04 11:31:26;;;;;;;12.57;4.47;;;;;;;19.49;92.22;102583.03;5222041;28;20041;-71
2023/10/04 11:34:00;;;;;;;9.55;4.50;;;;;;;19.49;91.29;102585.69;5228341;28;20513;-71
2023/10/04 11:36:35;;;;;;;10.02;4.22;;;;;;;19.50;91.01;102573.22;5224021;28;20056;-72
2023/10/04 11:39:13;;;;;;;9.45;4.03;;;;;;;19.45;92.81;102573.69;5224621;28;20787;-72
2023/10/04 11:41:51;;;;;;;8.30;3.65;;;;;;;19.51;92.32;102572.25;5222194;28;20032;-72
2023/10/04 11:44:22;;;;;;;7.65;3.88;;;;;;;19.45;90.87;102571.84;5222446;28;20033;-72
2023/10/04 11:46:56;;;;;;;10.55;4.93;;;;;;;19.50;88.16;102571.41;5219052;28;20747;-71